Time;durP1;ratioP1;P1;durP2;ratioP2;P2;SDS_P1;SDS_P2;PMS_P1;PMS_P2;Temp;Humidity;BMP_temperature;BMP_pressure;BME280_temperature;BME280_humidity;BME280_pressure;Samples;Min_cycle;Max_cycle;Signal;HPM_P1;HPM_P2
2022/11/09 00:00:35;;;;;;;1.23;1.13;;;;;;;14.96;60.87;100019.34;5054735;28;20237;-81
2022/11/09 00:03:02;;;;;;;2.20;1.17;;;;;;;14.96;61.16;100011.28;5053414;28;20225;-81
2022/11/09 00:05:28;;;;;;;2.33;1.17;;;;;;;14.97;60.93;100014.81;5054257;28;20205;-80
2022/11/09 00:07:55;;;;;;;3.73;1.23;;;;;;;14.95;61.32;100006.91;5052789;28;20210;-80
2022/11/09 00:10:21;;;;;;;2.33;1.20;;;;;;;14.94;61.45;100018.63;5053008;28;20225;-81
2022/11/09 00:12:48;;;;;;;1.73;1.10;;;;;;;14.93;61.37;100000.84;5056452;28;20210;-80
2022/11/09 00:15:16;;;;;;;2.43;1.30;;;;;;;14.92;61.17;100008.03;5052586;28;20201;-80
2022/11/09 00:17:42;;;;;;;1.87;1.00;;;;;;;14.91;61.25;99998.28;5049342;28;20891;-80
2022/11/09 00:20:10;;;;;;;1.67;0.93;;;;;;;14.91;61.19;100010.84;5058645;28;20232;-80
2022/11/09 00:22:36;;;;;;;2.87;1.30;;;;;;;14.90;60.99;100001.97;5049072;28;20218;-80
2022/11/09 00:25:03;;;;;;;1.40;1.10;;;;;;;14.91;61.31;99998.28;5051264;28;20604;-81
2022/11/09 00:27:30;;;;;;;1.70;0.90;;;;;;;14.90;61.24;99995.75;5048477;28;20671;-81
2022/11/09 00:29:57;;;;;;;11.87;1.67;;;;;;;14.88;61.07;99995.03;5051938;28;20673;-80
2022/11/09 00:32:25;;;;;;;1.67;1.30;;;;;;;14.87;61.32;99993.34;5051855;28;20206;-81
2022/11/09 00:34:52;;;;;;;0.87;0.80;;;;;;;14.85;61.05;99996.19;5051899;28;20202;-80
2022/11/09 00:37:18;;;;;;;2.57;1.10;;;;;;;14.84;61.38;99997.19;5051578;28;20216;-80
2022/11/09 00:39:45;;;;;;;1.20;0.80;;;;;;;14.83;61.07;99991.97;5052295;28;20683;-80
2022/11/09 00:42:11;;;;;;;1.93;1.10;;;;;;;14.81;60.95;99999.28;5054311;28;20249;-80
2022/11/09 00:44:38;;;;;;;1.90;0.80;;;;;;;14.80;61.10;99990.41;5052302;28;20292;-80
2022/11/09 00:47:04;;;;;;;2.23;1.10;;;;;;;14.80;61.34;100001.13;5053241;28;20293;-80
2022/11/09 00:49:32;;;;;;;2.27;0.97;;;;;;;14.80;61.33;99998.44;5052786;28;20725;-80
2022/11/09 00:51:59;;;;;;;1.57;1.00;;;;;;;14.80;61.14;99994.91;5051974;28;20203;-80
2022/11/09 00:54:25;;;;;;;2.37;1.00;;;;;;;14.80;61.13;99986.88;5055075;28;20578;-81
2022/11/09 00:56:52;;;;;;;2.10;1.10;;;;;;;14.81;61.27;99989.41;5049057;28;20209;-80
2022/11/09 00:59:19;;;;;;;2.50;0.80;;;;;;;14.82;61.15;99996.47;5052784;28;20221;-80
2022/11/09 01:01:45;;;;;;;1.37;0.93;;;;;;;14.82;60.89;99982.22;5050865;28;20226;-81
2022/11/09 01:04:12;;;;;;;1.57;1.13;;;;;;;14.84;60.96;99977.56;5051217;28;20218;-81
2022/11/09 01:06:40;;;;;;;1.80;1.00;;;;;;;14.83;61.28;99983.91;5050628;28;20589;-81
2022/11/09 01:09:06;;;;;;;3.30;1.20;;;;;;;14.83;60.99;99986.59;5050137;28;20225;-81
2022/11/09 01:11:33;;;;;;;1.83;1.10;;;;;;;14.81;60.98;99989.41;5052863;28;20200;-80
2022/11/09 01:14:01;;;;;;;1.90;0.70;;;;;;;14.81;61.19;99996.63;5052815;28;20207;-80
2022/11/09 01:16:27;;;;;;;2.03;0.90;;;;;;;14.80;61.43;99994.91;5052653;28;20826;-81
2022/11/09 01:18:55;;;;;;;2.80;1.30;;;;;;;14.78;61.45;99989.69;5053108;28;20226;-80
2022/11/09 01:21:22;;;;;;;1.07;0.97;;;;;;;14.76;61.67;99980.94;5051485;28;20222;-81
2022/11/09 01:23:50;;;;;;;2.53;1.10;;;;;;;14.79;61.65;99987.84;5051493;28;20655;-80
2022/11/09 01:26:16;;;;;;;1.50;1.13;;;;;;;14.76;61.68;99983.63;5050177;28;20255;-81
2022/11/09 01:28:43;;;;;;;1.20;1.00;;;;;;;14.74;61.59;99980.22;5051248;28;20219;-80
2022/11/09 01:31:11;;;;;;;1.07;0.97;;;;;;;14.75;61.86;99976.56;5050813;28;20652;-80
2022/11/09 01:33:38;;;;;;;1.73;1.30;;;;;;;14.78;61.73;99981.66;5049923;28;20215;-80
2022/11/09 01:36:06;;;;;;;1.97;1.23;;;;;;;14.78;62.03;99987.00;5055957;28;20205;-79
2022/11/09 01:38:33;;;;;;;1.77;1.20;;;;;;;14.79;61.54;99977.97;5054309;28;20229;-80
2022/11/09 01:41:01;;;;;;;1.77;0.90;;;;;;;14.81;61.50;99991.25;5053927;28;20257;-80
2022/11/09 01:43:28;;;;;;;1.07;0.90;;;;;;;14.81;61.59;99985.88;5056501;28;20204;-80
2022/11/09 01:45:59;;;;;;;1.50;1.07;;;;;;;14.79;61.71;99986.03;5049736;28;21931;-80
2022/11/09 01:48:36;;;;;;;1.43;0.90;;;;;;;14.80;61.49;99984.19;5051475;28;20274;-81
2022/11/09 01:51:07;;;;;;;2.43;1.10;;;;;;;14.80;61.70;99986.88;5051344;28;20194;-81
2022/11/09 01:53:39;;;;;;;1.90;0.97;;;;;;;14.78;61.80;99981.66;5051445;28;20200;-80
2022/11/09 01:56:09;;;;;;;1.70;0.93;;;;;;;14.78;61.83;99991.53;5053835;28;20254;-80
2022/11/09 01:58:45;;;;;;;2.47;1.10;;;;;;;14.79;62.00;99987.84;5054229;28;20232;-80
2022/11/09 02:01:14;;;;;;;1.50;1.10;;;;;;;14.78;61.96;99989.69;5054518;28;20224;-80
2022/11/09 02:03:43;;;;;;;1.57;0.93;;;;;;;14.79;62.21;99991.38;5054959;28;20197;-80
2022/11/09 02:06:13;;;;;;;1.37;0.90;;;;;;;14.78;62.29;99991.53;5062554;28;20201;-80
2022/11/09 02:08:41;;;;;;;1.30;0.80;;;;;;;14.79;62.36;99985.19;5052309;28;20690;-80
2022/11/09 02:11:11;;;;;;;0.80;0.80;;;;;;;14.77;62.26;99984.47;5059232;28;20622;-80
2022/11/09 02:13:39;;;;;;;1.50;1.10;;;;;;;14.77;62.60;99984.47;5055234;28;20210;-81
2022/11/09 02:16:08;;;;;;;3.33;1.20;;;;;;;14.77;62.85;99979.09;5063203;28;20205;-81
2022/11/09 02:18:39;;;;;;;2.47;1.00;;;;;;;14.75;62.80;99987.28;5057542;28;20252;-80
2022/11/09 02:21:07;;;;;;;1.40;1.20;;;;;;;14.74;62.36;99990.94;5052979;28;20202;-82
2022/11/09 02:23:33;;;;;;;1.80;0.90;;;;;;;14.72;62.95;99978.66;5053508;28;20206;-82
2022/11/09 02:26:05;;;;;;;2.10;1.03;;;;;;;14.73;62.79;99980.38;5060979;28;20207;-82
2022/11/09 02:28:32;;;;;;;1.50;1.20;;;;;;;14.73;62.67;99978.53;5056330;28;20231;-82
2022/11/09 02:30:59;;;;;;;1.33;1.10;;;;;;;14.72;63.18;99971.47;5050618;28;20533;-81
2022/11/09 02:33:25;;;;;;;2.87;1.33;;;;;;;14.72;63.11;99971.47;5052581;28;20206;-81
2022/11/09 02:35:52;;;;;;;1.17;1.07;;;;;;;14.71;62.90;99963.56;5052287;28;20217;-81
2022/11/09 02:38:19;;;;;;;1.90;1.13;;;;;;;14.72;63.31;99965.28;5061657;28;20216;-80
2022/11/09 02:40:49;;;;;;;2.17;1.00;;;;;;;14.72;63.29;99976.84;5062589;28;20207;-82
2022/11/09 02:43:17;;;;;;;2.00;1.03;;;;;;;14.72;63.51;99971.47;5054395;28;20242;-81
2022/11/09 02:45:44;;;;;;;2.30;0.93;;;;;;;14.73;63.75;99975.84;5061700;28;20657;-82
2022/11/09 02:48:10;;;;;;;1.50;1.10;;;;;;;14.75;63.75;99965.00;5055511;28;20206;-81
2022/11/09 02:50:37;;;;;;;2.17;1.20;;;;;;;14.74;63.91;99958.78;5059881;28;20202;-81
2022/11/09 02:53:03;;;;;;;1.67;1.00;;;;;;;14.74;63.53;99957.94;5054585;28;20214;-82
2022/11/09 02:55:31;;;;;;;1.23;0.90;;;;;;;14.74;63.79;99968.66;5055333;28;20209;-83
2022/11/09 02:57:58;;;;;;;1.90;1.00;;;;;;;14.74;63.94;99976.69;5052120;28;20210;-82
2022/11/09 03:00:24;;;;;;;1.90;1.00;;;;;;;14.74;64.24;99971.34;5053025;28;20221;-83
2022/11/09 03:02:51;;;;;;;1.73;0.80;;;;;;;14.76;64.17;99956.81;5058394;28;20688;-82
2022/11/09 03:05:18;;;;;;;2.50;0.97;;;;;;;14.77;64.13;99952.31;5055316;28;20217;-82
2022/11/09 03:07:44;;;;;;;1.07;0.90;;;;;;;14.78;63.72;99944.13;5054460;28;20291;-80
2022/11/09 03:10:11;;;;;;;1.00;0.80;;;;;;;14.77;64.26;99954.97;5054040;28;20221;-82
2022/11/09 03:12:38;;;;;;;1.50;0.90;;;;;;;14.77;64.05;99960.34;5053116;28;20201;-82
2022/11/09 03:15:07;;;;;;;1.10;1.00;;;;;;;14.79;63.84;99950.34;5055983;28;20232;-81
2022/11/09 03:17:34;;;;;;;2.63;1.00;;;;;;;14.80;63.88;99960.91;5063569;28;20837;-82
2022/11/09 03:20:01;;;;;;;1.90;1.00;;;;;;;14.80;63.88;99960.06;5061378;28;20238;-83
2022/11/09 03:22:28;;;;;;;2.87;0.93;;;;;;;14.81;63.81;99956.41;5059316;28;20221;-83
2022/11/09 03:24:54;;;;;;;1.33;0.83;;;;;;;14.81;63.57;99957.25;5054051;28;20203;-83
2022/11/09 03:27:21;;;;;;;1.57;0.90;;;;;;;14.82;63.48;99944.69;5066065;28;20296;-82
2022/11/09 03:29:48;;;;;;;1.13;0.80;;;;;;;14.88;63.52;99938.75;5055911;28;20228;-82
2022/11/09 03:32:15;;;;;;;1.70;0.83;;;;;;;14.89;63.41;99919.00;5068386;28;20204;-81
2022/11/09 03:34:41;;;;;;;0.97;0.70;;;;;;;14.89;63.20;99941.28;5056227;28;20207;-81
2022/11/09 03:37:08;;;;;;;1.23;0.93;;;;;;;14.89;63.41;99959.19;5061088;28;20206;-81
2022/11/09 03:39:34;;;;;;;1.60;0.83;;;;;;;14.90;63.73;99942.13;5057172;28;20225;-81
2022/11/09 03:42:01;;;;;;;1.43;0.80;;;;;;;14.89;63.54;99945.81;5056645;28;20241;-82
2022/11/09 03:44:27;;;;;;;1.10;1.00;;;;;;;14.89;63.84;99940.44;5060483;28;20288;-81
2022/11/09 03:46:55;;;;;;;1.23;0.93;;;;;;;14.89;63.43;99957.38;5053865;28;20206;-81
2022/11/09 03:49:23;;;;;;;1.13;1.00;;;;;;;14.88;63.88;99949.47;5057079;28;20241;-82
2022/11/09 03:51:49;;;;;;;2.80;1.00;;;;;;;14.88;63.52;99953.00;5054947;28;20211;-82
2022/11/09 03:54:16;;;;;;;1.13;1.03;;;;;;;14.90;63.58;99955.53;5058073;28;20708;-82
2022/11/09 03:56:42;;;;;;;1.67;1.23;;;;;;;14.89;63.61;99959.19;5060862;28;20203;-82
2022/11/09 03:59:09;;;;;;;2.20;1.00;;;;;;;14.88;63.86;99955.69;5053523;28;20297;-80
2022/11/09 04:01:35;;;;;;;2.13;1.30;;;;;;;14.87;63.95;99962.03;5055284;28;20899;-82
2022/11/09 04:04:03;;;;;;;1.23;0.70;;;;;;;14.88;63.71;99968.22;5059760;28;20590;-83
2022/11/09 04:06:29;;;;;;;1.83;0.90;;;;;;;14.87;63.78;99971.91;5058859;28;20714;-81
2022/11/09 04:08:56;;;;;;;0.83;0.83;;;;;;;14.85;64.26;99966.72;5065449;28;20726;-82
2022/11/09 04:11:22;;;;;;;2.23;1.10;;;;;;;14.87;64.20;99958.50;5058313;28;20293;-81
2022/11/09 04:13:49;;;;;;;1.27;0.77;;;;;;;14.84;64.54;99954.28;5062132;28;20203;-81
2022/11/09 04:16:15;;;;;;;1.33;0.90;;;;;;;14.85;64.84;99953.31;5054725;28;20207;-81
2022/11/09 04:18:42;;;;;;;0.97;0.80;;;;;;;14.84;64.65;99942.72;5056486;28;20232;-81
2022/11/09 04:21:09;;;;;;;2.97;1.07;;;;;;;14.84;64.83;99953.44;5052470;28;20199;-81
2022/11/09 04:23:36;;;;;;;2.77;1.23;;;;;;;14.79;65.09;99951.19;5056121;28;20701;-85
2022/11/09 04:26:02;;;;;;;1.37;0.80;;;;;;;14.78;65.52;99954.84;5062815;28;20243;-81
2022/11/09 04:28:29;;;;;;;1.40;1.00;;;;;;;14.77;65.64;99952.31;5050235;28;20232;-80
2022/11/09 04:31:00;;;;;;;1.50;0.87;;;;;;;14.73;65.87;99956.25;5057561;28;20205;-81
2022/11/09 04:33:26;;;;;;;1.30;1.20;;;;;;;14.74;65.83;99960.63;5059604;28;20703;-80
2022/11/09 04:35:53;;;;;;;2.60;1.07;;;;;;;14.72;66.00;99965.28;5052202;28;20211;-81
2022/11/09 04:38:21;;;;;;;1.37;0.80;;;;;;;14.72;66.39;99965.28;5062995;28;20209;-79
2022/11/09 04:40:47;;;;;;;1.90;1.10;;;;;;;14.69;66.77;99966.38;5054086;28;20687;-79
2022/11/09 04:43:14;;;;;;;1.00;0.70;;;;;;;14.66;66.81;99960.50;5052920;28;20623;-80
2022/11/09 04:45:41;;;;;;;1.50;1.07;;;;;;;14.63;66.93;99961.59;5058739;28;20209;-81
2022/11/09 04:48:10;;;;;;;1.27;0.90;;;;;;;14.66;67.51;99960.50;5054970;28;20249;-80
2022/11/09 04:50:36;;;;;;;3.30;0.97;;;;;;;14.66;67.55;99966.69;5049626;28;20213;-80
2022/11/09 04:53:08;;;;;;;1.33;1.00;;;;;;;14.64;67.85;99967.81;5051955;28;20205;-80
2022/11/09 04:55:36;;;;;;;3.03;1.27;;;;;;;14.59;67.68;99960.19;5054507;28;20201;-80
2022/11/09 04:58:03;;;;;;;0.80;0.80;;;;;;;14.56;67.93;99963.16;5058602;28;20768;-80
2022/11/09 05:00:30;;;;;;;1.93;1.00;;;;;;;14.53;68.19;99964.25;5055612;28;20610;-80
2022/11/09 05:02:59;;;;;;;2.03;0.90;;;;;;;14.54;68.59;99962.44;5053723;28;20233;-80
2022/11/09 05:05:26;;;;;;;3.37;1.10;;;;;;;14.56;68.65;99971.19;5055246;28;20201;-81
2022/11/09 05:07:53;;;;;;;1.73;0.80;;;;;;;14.52;68.88;99962.56;5061465;28;20655;-81
2022/11/09 05:10:19;;;;;;;1.30;0.80;;;;;;;14.49;68.91;99964.69;5057572;28;20217;-81
2022/11/09 05:12:47;;;;;;;2.70;1.10;;;;;;;14.47;69.20;99966.66;5066380;28;20201;-80
2022/11/09 05:15:13;;;;;;;1.53;1.13;;;;;;;14.45;69.07;99969.47;5053557;28;20598;-81
2022/11/09 05:17:40;;;;;;;1.20;1.00;;;;;;;14.45;69.75;99968.63;5060102;28;20693;-80
2022/11/09 05:20:07;;;;;;;1.00;0.90;;;;;;;14.45;69.70;99976.69;5058351;28;20719;-80
2022/11/09 05:25:23;;;;;;;1.97;1.20;;;;;;;14.39;70.27;99972.66;5057117;28;20274;-81
2022/11/09 05:27:51;;;;;;;2.17;0.80;;;;;;;14.40;70.60;99978.88;5053289;28;20242;-81
2022/11/09 05:30:18;;;;;;;1.80;0.90;;;;;;;14.37;70.86;99963.94;5058341;28;20226;-81
2022/11/09 05:32:44;;;;;;;1.83;1.00;;;;;;;14.40;71.12;99971.72;5060288;28;20194;-81
2022/11/09 05:35:11;;;;;;;2.27;1.20;;;;;;;14.40;71.28;99976.19;5061274;28;20584;-80
2022/11/09 05:37:38;;;;;;;2.30;1.33;;;;;;;14.38;71.10;99968.31;5060304;28;20205;-80
2022/11/09 05:40:06;;;;;;;2.47;1.20;;;;;;;14.34;71.43;99972.22;5061233;28;20228;-80
2022/11/09 05:42:32;;;;;;;1.60;1.03;;;;;;;14.33;71.24;99978.56;5064133;28;20228;-80
2022/11/09 05:45:00;;;;;;;2.87;1.20;;;;;;;14.29;71.34;99971.81;5067166;28;20213;-80
2022/11/09 05:47:26;;;;;;;1.53;1.00;;;;;;;14.28;71.63;99980.00;5062616;28;20624;-81
2022/11/09 05:49:53;;;;;;;1.80;1.07;;;;;;;14.22;71.77;99978.69;5060633;28;20225;-81
2022/11/09 05:52:19;;;;;;;1.13;1.00;;;;;;;14.21;71.86;99982.34;5063817;28;20220;-81
2022/11/09 05:54:46;;;;;;;2.80;1.20;;;;;;;14.20;72.24;99986.00;5060066;28;20209;-81
2022/11/09 05:57:12;;;;;;;2.20;1.10;;;;;;;14.20;72.20;99989.53;5062873;28;20225;-80
2022/11/09 05:59:39;;;;;;;2.07;1.23;;;;;;;14.16;72.36;99990.78;5063545;28;20220;-80
2022/11/09 06:02:07;;;;;;;2.47;1.30;;;;;;;14.18;72.72;99996.84;5061623;28;20221;-80
2022/11/09 06:04:33;;;;;;;3.30;1.37;;;;;;;14.17;72.33;99995.16;5062693;28;20670;-80
2022/11/09 06:07:01;;;;;;;1.30;1.10;;;;;;;14.16;72.73;99996.16;5060872;28;20686;-80
2022/11/09 06:09:28;;;;;;;1.93;1.20;;;;;;;14.14;72.98;99999.97;5054718;28;20224;-80
2022/11/09 06:11:54;;;;;;;1.70;1.20;;;;;;;14.09;73.32;100003.03;5054014;28;20209;-80
2022/11/09 06:14:20;;;;;;;2.07;1.10;;;;;;;14.07;73.22;100001.47;5059032;28;20634;-81
2022/11/09 06:16:47;;;;;;;1.63;1.10;;;;;;;14.05;73.22;100012.31;5063805;28;20515;-80
2022/11/09 06:19:15;;;;;;;2.87;1.40;;;;;;;14.07;73.78;100007.69;5060115;28;21167;-80
2022/11/09 06:21:41;;;;;;;1.87;1.20;;;;;;;14.05;73.69;100014.16;5058252;28;20209;-79
2022/11/09 06:24:08;;;;;;;3.23;1.50;;;;;;;14.00;73.76;100019.91;5056785;28;20222;-81
2022/11/09 06:26:34;;;;;;;2.97;1.57;;;;;;;13.98;73.65;100021.00;5057462;28;20206;-80
2022/11/09 06:29:01;;;;;;;1.33;1.23;;;;;;;14.00;74.37;100011.03;5062540;28;20723;-80
2022/11/09 06:31:28;;;;;;;2.47;1.43;;;;;;;13.98;74.38;100012.97;5060275;28;20217;-78
2022/11/09 06:33:54;;;;;;;2.10;1.37;;;;;;;13.94;74.09;100017.78;5057710;28;20201;-78
2022/11/09 06:36:22;;;;;;;2.63;1.40;;;;;;;13.92;74.06;100005.50;5055287;28;20209;-78
2022/11/09 06:38:49;;;;;;;1.40;1.10;;;;;;;13.89;74.12;100018.16;5064287;28;20228;-77
2022/11/09 06:41:16;;;;;;;2.80;1.30;;;;;;;13.87;74.81;100017.47;5055584;28;20268;-78
2022/11/09 06:43:42;;;;;;;1.93;1.30;;;;;;;13.87;74.83;100017.47;5060483;28;20217;-79
2022/11/09 06:46:10;;;;;;;1.73;1.40;;;;;;;13.86;75.03;100020.25;5048572;28;20213;-78
2022/11/09 06:48:36;;;;;;;3.37;1.50;;;;;;;13.83;75.19;100016.03;5067401;28;20324;-79
2022/11/09 06:51:04;;;;;;;3.93;1.40;;;;;;;13.85;75.28;100024.78;5052376;28;20255;-79
2022/11/09 06:53:33;;;;;;;2.13;1.07;;;;;;;13.83;75.31;100034.75;5055327;28;20201;-78
2022/11/09 06:56:01;;;;;;;1.90;1.53;;;;;;;13.81;75.59;100027.84;5051688;28;20213;-77
2022/11/09 06:58:28;;;;;;;2.33;1.40;;;;;;;13.82;75.51;100034.88;5052102;28;20202;-78
2022/11/09 07:00:55;;;;;;;3.53;1.60;;;;;;;13.81;75.68;100036.72;5056417;28;20212;-79
2022/11/09 07:03:22;;;;;;;2.47;1.20;;;;;;;13.83;75.44;100044.63;5056084;28;20234;-78
2022/11/09 07:05:51;;;;;;;2.70;1.77;;;;;;;13.82;75.95;100043.75;5058366;28;20571;-79
2022/11/09 07:08:18;;;;;;;1.73;1.30;;;;;;;13.82;76.00;100045.59;5056531;28;20213;-78
2022/11/09 07:10:46;;;;;;;3.10;1.27;;;;;;;13.85;76.10;100050.69;5044217;28;20214;-78
2022/11/09 07:13:12;;;;;;;4.20;1.40;;;;;;;13.86;76.19;100047.88;5049882;28;20696;-79
2022/11/09 07:15:39;;;;;;;1.43;1.10;;;;;;;13.87;76.16;100054.09;5052428;28;20205;-78
2022/11/09 07:18:10;;;;;;;1.53;1.07;;;;;;;13.88;76.52;100056.63;5053557;28;20205;-78
2022/11/09 07:20:37;;;;;;;2.00;1.10;;;;;;;13.91;76.27;100060.88;5055645;28;20196;-78
2022/11/09 07:23:03;;;;;;;1.43;1.20;;;;;;;13.90;76.33;100060.03;5051117;28;20255;-78
2022/11/09 07:25:30;;;;;;;2.77;1.10;;;;;;;13.90;76.62;100054.66;5058060;28;20676;-79
2022/11/09 07:28:04;;;;;;;1.53;1.00;;;;;;;13.93;76.73;100058.91;5052285;28;20210;-77
2022/11/09 07:30:30;;;;;;;2.93;1.10;;;;;;;13.96;76.48;100061.34;5054185;28;20221;-78
2022/11/09 07:32:58;;;;;;;1.80;0.87;;;;;;;13.99;76.75;100060.19;5060962;28;20201;-78
2022/11/09 07:35:25;;;;;;;2.57;1.20;;;;;;;13.98;76.92;100053.13;5050805;28;20202;-78
2022/11/09 07:37:52;;;;;;;1.90;1.70;;;;;;;14.00;76.97;100045.81;5050979;28;20210;-78
2022/11/09 07:40:18;;;;;;;1.40;0.93;;;;;;;14.00;76.61;100060.06;5053762;28;20232;-78
2022/11/09 07:42:45;;;;;;;3.00;1.23;;;;;;;14.04;77.08;100058.81;5057175;28;20208;-78
2022/11/09 07:45:13;;;;;;;1.37;0.90;;;;;;;14.07;77.29;100055.03;5046932;28;20235;-78
2022/11/09 07:47:39;;;;;;;1.87;1.10;;;;;;;14.13;76.60;100054.50;5057627;28;20208;-78
2022/11/09 07:50:06;;;;;;;1.30;1.20;;;;;;;14.20;77.15;100063.69;5055353;28;20231;-78
2022/11/09 07:52:33;;;;;;;2.73;1.53;;;;;;;14.25;76.70;100066.81;5046763;28;20202;-78
2022/11/09 07:54:59;;;;;;;1.80;0.90;;;;;;;14.31;76.71;100060.06;5048747;28;20201;-78
2022/11/09 07:57:26;;;;;;;1.80;1.20;;;;;;;14.39;76.33;100069.13;5055229;28;20201;-78
2022/11/09 07:59:52;;;;;;;1.30;0.90;;;;;;;14.44;76.49;100058.88;5053244;28;20236;-77
2022/11/09 08:02:20;;;;;;;1.53;1.00;;;;;;;14.52;76.02;100056.34;5055546;28;20225;-77
2022/11/09 08:04:46;;;;;;;1.33;0.83;;;;;;;14.58;75.54;100054.97;5050209;28;20714;-77
2022/11/09 08:07:13;;;;;;;3.37;1.20;;;;;;;14.60;75.42;100061.03;5053634;28;20206;-78
2022/11/09 08:09:39;;;;;;;3.73;0.90;;;;;;;14.64;75.58;100069.66;5049465;28;20241;-78
2022/11/09 08:12:06;;;;;;;1.60;0.87;;;;;;;14.67;75.45;100070.25;5051162;28;20209;-79
2022/11/09 08:14:33;;;;;;;1.47;0.93;;;;;;;14.70;75.38;100069.94;5050948;28;20201;-78
2022/11/09 08:16:59;;;;;;;1.40;0.90;;;;;;;14.71;75.04;100068.97;5052440;28;20224;-78
2022/11/09 08:19:27;;;;;;;1.97;1.07;;;;;;;14.75;75.14;100066.84;5052809;28;20226;-79
2022/11/09 08:21:56;;;;;;;1.13;0.80;;;;;;;14.79;74.97;100062.91;5065321;28;20202;-79
2022/11/09 08:24:22;;;;;;;2.17;0.87;;;;;;;14.79;74.89;100068.28;5066383;28;20229;-79
2022/11/09 08:26:49;;;;;;;0.90;0.80;;;;;;;14.81;75.17;100066.31;5065798;28;20693;-78
2022/11/09 08:29:15;;;;;;;1.20;0.93;;;;;;;14.81;74.95;100066.31;5058407;28;20221;-79
2022/11/09 08:31:42;;;;;;;1.43;0.70;;;;;;;14.84;74.83;100061.53;5059633;28;20213;-79
2022/11/09 08:34:11;;;;;;;1.67;1.03;;;;;;;14.83;74.85;100075.06;5059133;28;20214;-79
2022/11/09 08:36:39;;;;;;;2.03;0.80;;;;;;;14.84;74.50;100074.94;5066360;28;20571;-79
2022/11/09 08:39:05;;;;;;;2.27;0.83;;;;;;;14.84;74.35;100060.69;5061611;28;20612;-79
2022/11/09 08:41:32;;;;;;;1.73;0.90;;;;;;;14.85;74.17;100075.78;5065209;28;20209;-79
2022/11/09 08:43:59;;;;;;;1.43;0.80;;;;;;;14.85;74.32;100079.31;5059247;28;20229;-79
2022/11/09 08:46:25;;;;;;;2.00;1.07;;;;;;;14.86;74.58;100085.53;5059050;28;20212;-79
2022/11/09 08:48:52;;;;;;;1.07;0.80;;;;;;;14.87;74.87;100089.88;5058564;28;20696;-79
2022/11/09 08:51:18;;;;;;;1.40;0.80;;;;;;;14.87;75.47;100088.03;5064892;28;20209;-79
2022/11/09 08:53:46;;;;;;;2.03;0.73;;;;;;;14.86;76.53;100097.09;5055384;28;20198;-79
2022/11/09 08:56:17;;;;;;;1.00;0.80;;;;;;;14.83;77.18;100100.03;5062918;28;20216;-78
2022/11/09 08:58:44;;;;;;;1.67;1.07;;;;;;;14.79;77.30;100095.94;5064667;28;20615;-78
2022/11/09 09:01:11;;;;;;;1.47;0.90;;;;;;;14.76;78.25;100106.94;5063746;28;20201;-78
2022/11/09 09:03:38;;;;;;;0.90;0.90;;;;;;;14.74;78.80;100110.72;5058347;28;20222;-80
2022/11/09 09:06:06;;;;;;;1.90;1.10;;;;;;;14.71;79.32;100113.66;5064162;28;20214;-80
2022/11/09 09:08:33;;;;;;;2.77;1.10;;;;;;;14.69;79.43;100121.03;5058256;28;20212;-80
2022/11/09 09:11:03;;;;;;;1.87;1.50;;;;;;;14.61;80.47;100113.66;5060448;28;20201;-80
2022/11/09 09:13:29;;;;;;;2.47;1.87;;;;;;;14.57;80.79;100121.13;5062467;28;20216;-79
2022/11/09 09:15:56;;;;;;;4.50;2.50;;;;;;;14.51;81.64;100118.97;5063085;28;20214;-80
2022/11/09 09:18:22;;;;;;;3.00;1.30;;;;;;;14.47;82.27;100114.03;5068016;28;20220;-79
2022/11/09 09:20:49;;;;;;;5.27;1.30;;;;;;;14.44;82.38;100109.78;5063809;28;20205;-80
2022/11/09 09:23:16;;;;;;;2.20;1.20;;;;;;;14.41;83.25;100115.41;5063124;28;20232;-79
2022/11/09 09:25:42;;;;;;;2.60;1.30;;;;;;;14.37;83.57;100103.22;5059837;28;20217;-79
2022/11/09 09:28:10;;;;;;;6.50;2.00;;;;;;;14.34;83.93;100108.84;5056271;28;20608;-80
2022/11/09 09:30:36;;;;;;;2.43;1.80;;;;;;;14.29;84.61;100100.38;5054902;28;20225;-81
2022/11/09 09:33:03;;;;;;;2.20;1.73;;;;;;;14.28;85.24;100116.59;5058425;28;20205;-81
2022/11/09 09:35:29;;;;;;;3.20;2.10;;;;;;;14.23;85.77;100130.38;5058787;28;20702;-82
2022/11/09 09:37:57;;;;;;;5.73;2.40;;;;;;;14.19;86.68;100136.97;5050086;28;20296;-81
2022/11/09 09:40:26;;;;;;;2.97;1.80;;;;;;;14.13;86.88;100127.66;5056803;28;20221;-82
2022/11/09 09:42:54;;;;;;;3.63;1.90;;;;;;;14.09;87.05;100130.72;5053430;28;20211;-81
2022/11/09 09:45:26;;;;;;;2.27;1.30;;;;;;;14.01;87.84;100130.53;5062307;28;20226;-80
2022/11/09 09:47:58;;;;;;;1.43;0.93;;;;;;;13.95;87.91;100126.56;5059323;28;20201;-80
2022/11/09 09:50:29;;;;;;;1.67;0.60;;;;;;;13.87;88.18;100129.03;5061790;28;20949;-81
2022/11/09 09:53:00;;;;;;;1.50;0.57;;;;;;;13.81;88.12;100143.78;5056322;28;20698;-80
2022/11/09 09:55:34;;;;;;;0.80;0.40;;;;;;;13.69;87.97;100133.25;5058694;28;20198;-80
2022/11/09 09:58:06;;;;;;;1.00;0.60;;;;;;;13.61;88.73;100144.63;5060257;28;20205;-81
2022/11/09 10:00:37;;;;;;;0.57;0.40;;;;;;;13.57;88.97;100145.00;5062517;28;20700;-81
2022/11/09 10:03:04;;;;;;;2.47;0.90;;;;;;;13.52;89.50;100154.25;5059754;28;20267;-81
2022/11/09 10:05:43;;;;;;;2.80;1.00;;;;;;;13.51;89.46;100149.88;5073178;28;20826;-81
2022/11/09 10:08:16;;;;;;;2.23;0.70;;;;;;;13.47;89.84;100148.44;5058054;28;20213;-81
2022/11/09 10:10:48;;;;;;;1.13;0.60;;;;;;;13.45;90.22;100142.38;5051480;28;20205;-80
2022/11/09 10:13:32;;;;;;;1.43;0.40;;;;;;;13.43;90.44;100140.81;5063309;28;20572;-81
2022/11/09 10:16:09;;;;;;;1.70;0.50;;;;;;;13.43;90.58;100146.16;5055288;28;20206;-80
2022/11/09 10:18:50;;;;;;;1.67;0.70;;;;;;;13.40;91.01;100147.28;5059959;28;20711;-80
2022/11/09 10:21:31;;;;;;;1.83;0.77;;;;;;;13.41;91.33;100145.44;5059917;28;20589;-80
2022/11/09 10:24:14;;;;;;;0.70;0.50;;;;;;;13.41;91.55;100148.97;5066722;28;20651;-81
2022/11/09 10:26:44;;;;;;;0.60;0.60;;;;;;;13.36;91.87;100150.31;5061806;28;20208;-80
2022/11/09 10:29:22;;;;;;;1.23;0.53;;;;;;;13.36;92.24;100155.66;5059853;28;20236;-80
2022/11/09 10:31:52;;;;;;;2.03;0.63;;;;;;;13.37;92.05;100157.38;5056465;28;20209;-80
2022/11/09 10:34:21;;;;;;;0.70;0.30;;;;;;;13.41;91.95;100137.41;5062472;28;20209;-80
2022/11/09 10:37:04;;;;;;;1.57;0.40;;;;;;;13.35;91.40;100143.28;5063468;28;20220;-81
2022/11/09 10:39:40;;;;;;;1.67;0.30;;;;;;;13.32;91.41;100149.72;5061021;28;20228;-80
2022/11/09 10:42:10;;;;;;;2.60;0.50;;;;;;;13.31;91.77;100149.84;5056575;28;20225;-80
2022/11/09 10:44:36;;;;;;;1.17;0.50;;;;;;;13.31;91.23;100147.16;5059532;28;20226;-81
2022/11/09 10:47:10;;;;;;;1.23;0.60;;;;;;;13.27;91.34;100149.22;5053642;28;20216;-80
2022/11/09 10:49:37;;;;;;;2.53;0.73;;;;;;;13.28;91.75;100136.72;5061447;28;20222;-81
2022/11/09 10:52:05;;;;;;;1.10;0.50;;;;;;;13.27;91.68;100135.88;5059461;28;20209;-80
2022/11/09 10:54:34;;;;;;;2.33;0.50;;;;;;;13.28;91.83;100142.06;5058394;28;20194;-80
2022/11/09 10:57:11;;;;;;;1.47;0.53;;;;;;;13.28;91.86;100134.88;5065017;28;20254;-81
2022/11/09 10:59:43;;;;;;;2.37;0.90;;;;;;;13.30;92.23;100134.75;5059251;28;20233;-80
2022/11/09 11:02:40;;;;;;;1.87;0.50;;;;;;;13.36;92.03;100140.47;5070240;28;20219;-81
2022/11/09 11:05:23;;;;;;;0.93;0.50;;;;;;;13.40;92.34;100135.72;5062106;28;20802;-81
2022/11/09 11:07:49;;;;;;;1.43;0.57;;;;;;;13.46;92.87;100135.19;5057661;28;20201;-80
2022/11/09 11:10:19;;;;;;;1.03;0.57;;;;;;;13.51;92.51;100143.69;5055975;28;20308;-79
2022/11/09 11:12:52;;;;;;;2.83;0.90;;;;;;;13.52;92.93;100135.53;5060418;28;20304;-80
2022/11/09 11:15:23;;;;;;;1.20;0.60;;;;;;;13.57;93.11;100143.19;5059006;28;20209;-80
2022/11/09 11:18:00;;;;;;;0.87;0.47;;;;;;;13.59;92.21;100133.22;5053111;28;20221;-80
2022/11/09 11:20:29;;;;;;;1.50;0.50;;;;;;;13.59;92.31;100135.88;5052350;28;20296;-79
2022/11/09 11:23:11;;;;;;;0.83;0.40;;;;;;;13.63;92.05;100131.94;5053523;28;20206;-80
2022/11/09 11:25:54;;;;;;;1.00;0.50;;;;;;;13.65;91.62;100132.66;5057412;28;20576;-81
2022/11/09 11:28:28;;;;;;;1.47;0.60;;;;;;;13.70;91.50;100129.63;5057234;28;20653;-80
2022/11/09 11:30:55;;;;;;;2.07;0.70;;;;;;;13.75;91.46;100122.91;5060957;28;20215;-80
2022/11/09 11:33:23;;;;;;;2.30;0.80;;;;;;;13.78;91.73;100119.97;5054159;28;20202;-79
2022/11/09 11:35:56;;;;;;;2.33;0.80;;;;;;;13.79;91.22;100116.28;5062039;28;20205;-80